createdAt,value
2019-02-02T00:00:42.598Z,986.40
2019-02-02T00:01:42.564Z,986.37
2019-02-02T00:02:42.540Z,986.38
2019-02-02T00:03:42.509Z,986.40
2019-02-02T00:04:42.481Z,986.32
2019-02-02T00:05:42.453Z,986.31
2019-02-02T00:06:42.425Z,986.34
2019-02-02T00:07:42.398Z,986.28
2019-02-02T00:08:42.368Z,986.27
2019-02-02T00:09:42.341Z,986.28
2019-02-02T00:10:42.310Z,986.25
2019-02-02T00:11:42.284Z,986.21
2019-02-02T00:12:42.254Z,986.21
2019-02-02T00:13:42.228Z,986.18
2019-02-02T00:14:45.036Z,986.14
2019-02-02T00:15:42.170Z,986.15
2019-02-02T00:16:42.141Z,986.11
2019-02-02T00:17:42.114Z,986.15
2019-02-02T00:18:42.090Z,986.12
2019-02-02T00:19:42.057Z,986.10
2019-02-02T00:20:42.080Z,986.12
2019-02-02T00:21:42.000Z,986.05
2019-02-02T00:22:42.025Z,986.07
2019-02-02T00:23:41.978Z,986.04
2019-02-02T00:24:41.915Z,986.07
2019-02-02T00:25:41.887Z,986.11
2019-02-02T00:26:41.866Z,986.16
2019-02-02T00:27:41.898Z,986.13
2019-02-02T00:28:41.857Z,986.11
2019-02-02T00:29:41.856Z,986.11
2019-02-02T00:30:41.804Z,986.09
2019-02-02T00:31:41.746Z,986.09
2019-02-02T00:32:41.691Z,986.05
2019-02-02T00:33:41.663Z,986.05
2019-02-02T00:34:41.636Z,986.10
2019-02-02T00:35:41.609Z,986.07
2019-02-02T00:36:41.576Z,986.05
2019-02-02T00:37:41.548Z,986.03
2019-02-02T00:38:41.521Z,985.98
2019-02-02T00:39:41.577Z,986.00
2019-02-02T00:40:41.470Z,986.03
2019-02-02T00:41:41.439Z,986.08
2019-02-02T00:42:41.407Z,986.11
2019-02-02T00:43:41.380Z,986.13
2019-02-02T00:44:41.351Z,986.15
2019-02-02T00:45:41.325Z,986.14
2019-02-02T00:46:41.299Z,986.13
2019-02-02T00:47:41.266Z,986.15
2019-02-02T00:48:41.244Z,986.16
2019-02-02T00:49:41.211Z,986.16
2019-02-02T00:50:41.181Z,986.15
2019-02-02T00:51:41.153Z,986.15
2019-02-02T00:52:41.130Z,986.15
2019-02-02T00:53:41.102Z,986.14
2019-02-02T00:54:41.068Z,986.15
2019-02-02T00:55:41.041Z,986.13
2019-02-02T00:56:41.013Z,986.14
2019-02-02T00:57:52.685Z,986.12
2019-02-02T00:58:40.955Z,986.14
2019-02-02T00:59:40.930Z,986.15
2019-02-02T01:00:40.898Z,986.12
2019-02-02T01:01:40.873Z,986.11
2019-02-02T01:02:40.845Z,986.14
2019-02-02T01:03:40.863Z,986.18
2019-02-02T01:04:40.786Z,986.17
2019-02-02T01:05:40.758Z,986.20
2019-02-02T01:06:40.806Z,986.21
2019-02-02T01:07:40.700Z,986.25
2019-02-02T01:08:40.673Z,986.19
2019-02-02T01:09:40.658Z,986.23
2019-02-02T01:10:40.630Z,986.24
2019-02-02T01:11:40.591Z,986.26
2019-02-02T01:12:40.563Z,986.24
2019-02-02T01:13:40.533Z,986.26
2019-02-02T01:14:40.506Z,986.25
2019-02-02T01:15:40.479Z,986.25
2019-02-02T01:16:40.506Z,986.27
2019-02-02T01:17:40.422Z,986.26
2019-02-02T01:18:40.392Z,986.30
2019-02-02T01:19:40.364Z,986.28
2019-02-02T01:20:40.335Z,986.30
2019-02-02T01:21:40.306Z,986.35
2019-02-02T01:22:40.280Z,986.33
2019-02-02T01:23:40.252Z,986.30
2019-02-02T01:24:40.223Z,986.31
2019-02-02T01:25:40.195Z,986.36
2019-02-02T01:26:40.171Z,986.25
2019-02-02T01:27:40.140Z,986.28
2019-02-02T01:28:40.110Z,986.34
2019-02-02T01:29:40.083Z,986.28
2019-02-02T01:30:40.055Z,986.32
2019-02-02T01:31:40.028Z,986.28
2019-02-02T01:32:39.998Z,986.26
2019-02-02T01:33:39.971Z,986.22
2019-02-02T01:34:39.944Z,986.22
2019-02-02T01:35:39.973Z,986.25
2019-02-02T01:36:39.884Z,986.24
2019-02-02T01:37:39.864Z,986.29
2019-02-02T01:38:39.829Z,986.27
2019-02-02T01:39:39.801Z,986.29
2019-02-02T01:40:39.772Z,986.26
2019-02-02T01:41:39.762Z,986.26
2019-02-02T01:42:39.845Z,986.23
2019-02-02T01:43:39.690Z,986.25
2019-02-02T01:44:39.661Z,986.22
2019-02-02T01:45:39.635Z,986.22
2019-02-02T01:46:39.606Z,986.23
2019-02-02T01:47:39.581Z,986.26
2019-02-02T01:48:39.547Z,986.27
2019-02-02T01:49:39.522Z,986.28
2019-02-02T01:50:39.494Z,986.31
2019-02-02T01:51:39.465Z,986.32
2019-02-02T01:52:39.445Z,986.34
2019-02-02T01:53:39.409Z,986.33
2019-02-02T01:54:39.387Z,986.35
2019-02-02T01:55:39.350Z,986.35
2019-02-02T01:56:39.322Z,986.36
2019-02-02T01:57:39.295Z,986.31
2019-02-02T01:58:39.267Z,986.27
2019-02-02T01:59:39.283Z,986.27
2019-02-02T02:00:39.209Z,986.24
2019-02-02T02:01:41.629Z,986.26
2019-02-02T02:02:39.153Z,986.23
2019-02-02T02:03:39.127Z,986.24
2019-02-02T02:04:39.096Z,986.20
2019-02-02T02:05:39.070Z,986.20
2019-02-02T02:06:39.039Z,986.24
2019-02-02T02:07:39.015Z,986.19
2019-02-02T02:08:38.987Z,986.21
2019-02-02T02:09:38.957Z,986.22
2019-02-02T02:10:38.930Z,986.19
2019-02-02T02:11:38.899Z,986.19
2019-02-02T02:12:38.871Z,986.22
2019-02-02T02:13:38.846Z,986.23
2019-02-02T02:14:38.817Z,986.19
2019-02-02T02:15:38.787Z,986.20
2019-02-02T02:16:38.761Z,986.18
2019-02-02T02:17:38.733Z,986.20
2019-02-02T02:18:38.704Z,986.20
2019-02-02T02:19:38.682Z,986.23
2019-02-02T02:20:38.648Z,986.16
2019-02-02T02:21:38.626Z,986.19
2019-02-02T02:22:41.242Z,986.19
2019-02-02T02:23:38.562Z,986.22
2019-02-02T02:24:38.533Z,986.23
2019-02-02T02:25:38.505Z,986.19
2019-02-02T02:26:38.488Z,986.17
2019-02-02T02:27:38.451Z,986.16
2019-02-02T02:28:38.439Z,986.16
2019-02-02T02:29:38.392Z,986.11
2019-02-02T02:30:38.367Z,986.06
2019-02-02T02:31:38.338Z,986.10
2019-02-02T02:32:38.309Z,986.11
2019-02-02T02:33:38.283Z,986.08
2019-02-02T02:34:38.254Z,986.07
2019-02-02T02:35:38.226Z,986.04
2019-02-02T02:36:38.197Z,986.06
2019-02-02T02:37:38.169Z,986.05
2019-02-02T02:38:38.141Z,986.06
2019-02-02T02:39:38.114Z,986.11
2019-02-02T02:40:38.088Z,986.14
2019-02-02T02:41:38.057Z,986.16
2019-02-02T02:42:38.036Z,986.15
2019-02-02T02:43:38.005Z,986.20
2019-02-02T02:44:37.972Z,986.21
2019-02-02T02:45:37.946Z,986.19
2019-02-02T02:46:37.918Z,986.23
2019-02-02T02:47:37.894Z,986.21
2019-02-02T02:48:37.863Z,986.23
2019-02-02T02:49:37.835Z,986.21
2019-02-02T02:50:37.811Z,986.23
2019-02-02T02:51:37.778Z,986.21
2019-02-02T02:52:37.750Z,986.20
2019-02-02T02:53:37.733Z,986.21
2019-02-02T02:54:37.693Z,986.20
2019-02-02T02:55:37.670Z,986.18
2019-02-02T02:56:37.643Z,986.19
2019-02-02T02:57:37.608Z,986.20
2019-02-02T02:58:41.553Z,986.20
2019-02-02T02:59:37.556Z,986.20
2019-02-02T03:00:37.525Z,986.22
2019-02-02T03:01:37.503Z,986.18
2019-02-02T03:02:37.495Z,986.17
2019-02-02T03:03:37.447Z,986.16
2019-02-02T03:04:37.414Z,986.13
2019-02-02T03:05:37.393Z,986.10
2019-02-02T03:06:37.361Z,986.12
2019-02-02T03:07:37.334Z,986.11
2019-02-02T03:08:37.303Z,986.16
2019-02-02T03:09:37.275Z,986.15
2019-02-02T03:10:37.261Z,986.20
2019-02-02T03:11:37.219Z,986.20
2019-02-02T03:12:37.188Z,986.20
2019-02-02T03:13:37.163Z,986.22
2019-02-02T03:14:37.149Z,986.21
2019-02-02T03:15:37.105Z,986.24
2019-02-02T03:16:37.076Z,986.23
2019-02-02T03:17:37.048Z,986.23
2019-02-02T03:18:37.020Z,986.29
2019-02-02T03:19:36.994Z,986.26
2019-02-02T03:20:36.968Z,986.23
2019-02-02T03:21:36.938Z,986.24
2019-02-02T03:22:36.922Z,986.27
2019-02-02T03:23:36.883Z,986.28
2019-02-02T03:24:36.857Z,986.32
2019-02-02T03:25:36.827Z,986.33
2019-02-02T03:26:36.799Z,986.30
2019-02-02T03:27:36.772Z,986.33
2019-02-02T03:28:36.743Z,986.34
2019-02-02T03:29:36.715Z,986.32
2019-02-02T03:30:36.689Z,986.28
2019-02-02T03:31:36.663Z,986.36
2019-02-02T03:32:36.883Z,986.35
2019-02-02T03:33:36.605Z,986.35
2019-02-02T03:34:36.574Z,986.39
2019-02-02T03:35:36.546Z,986.38
2019-02-02T03:36:36.538Z,986.38
2019-02-02T03:37:36.490Z,986.44
2019-02-02T03:38:36.542Z,986.43
2019-02-02T03:39:36.446Z,986.45
2019-02-02T03:40:36.520Z,986.46
2019-02-02T03:41:36.383Z,986.49
2019-02-02T03:42:36.349Z,986.52
2019-02-02T03:43:36.324Z,986.52
2019-02-02T03:44:36.294Z,986.51
2019-02-02T03:45:36.273Z,986.50
2019-02-02T03:46:36.240Z,986.51
2019-02-02T03:47:36.217Z,986.51
2019-02-02T03:48:36.182Z,986.50
2019-02-02T03:49:36.154Z,986.48
2019-02-02T03:50:36.128Z,986.50
2019-02-02T03:51:36.102Z,986.49
2019-02-02T03:52:36.095Z,986.54
2019-02-02T03:53:36.042Z,986.51
2019-02-02T03:54:36.016Z,986.53
2019-02-02T03:55:35.990Z,986.49
2019-02-02T03:56:35.958Z,986.52
2019-02-02T03:57:35.931Z,986.49
2019-02-02T03:58:35.909Z,986.49
2019-02-02T03:59:35.876Z,986.55
2019-02-02T04:00:35.849Z,986.53
2019-02-02T04:01:35.825Z,986.51
2019-02-02T04:02:35.793Z,986.52
2019-02-02T04:03:35.766Z,986.55
2019-02-02T04:04:35.749Z,986.55
2019-02-02T04:05:35.709Z,986.53
2019-02-02T04:06:35.684Z,986.51
2019-02-02T04:07:35.659Z,986.53
2019-02-02T04:08:35.663Z,986.47
2019-02-02T04:09:35.598Z,986.46
2019-02-02T04:10:35.701Z,986.46
2019-02-02T04:11:35.543Z,986.47
2019-02-02T04:12:35.517Z,986.46
2019-02-02T04:13:35.488Z,986.49
2019-02-02T04:14:35.459Z,986.50
2019-02-02T04:15:35.431Z,986.48
2019-02-02T04:16:35.407Z,986.46
2019-02-02T04:17:35.377Z,986.49
2019-02-02T04:18:35.347Z,986.49
2019-02-02T04:19:35.318Z,986.49
2019-02-02T04:20:35.296Z,986.54
2019-02-02T04:21:35.264Z,986.52
2019-02-02T04:22:35.794Z,986.54
2019-02-02T04:23:35.207Z,986.52
2019-02-02T04:24:35.182Z,986.52
2019-02-02T04:25:35.150Z,986.51
2019-02-02T04:26:35.125Z,986.48
2019-02-02T04:27:35.095Z,986.44
2019-02-02T04:28:35.067Z,986.45
2019-02-02T04:29:35.039Z,986.46
2019-02-02T04:30:35.015Z,986.51
2019-02-02T04:31:34.984Z,986.51
2019-02-02T04:32:34.958Z,986.53
2019-02-02T04:33:34.928Z,986.54
2019-02-02T04:34:34.900Z,986.58
2019-02-02T04:35:34.876Z,986.58
2019-02-02T04:36:34.845Z,986.61
2019-02-02T04:37:34.818Z,986.62
2019-02-02T04:38:34.808Z,986.60
2019-02-02T04:39:34.762Z,986.66
2019-02-02T04:40:34.734Z,986.67
2019-02-02T04:41:34.704Z,986.72
2019-02-02T04:42:34.678Z,986.68
2019-02-02T04:43:34.665Z,986.74
2019-02-02T04:44:34.624Z,986.75
2019-02-02T04:45:34.595Z,986.74
2019-02-02T04:46:34.567Z,986.74
2019-02-02T04:47:34.543Z,986.76
2019-02-02T04:48:34.511Z,986.82
2019-02-02T04:49:34.485Z,986.83
2019-02-02T04:50:34.456Z,986.93
2019-02-02T04:51:34.432Z,986.90
2019-02-02T04:52:34.401Z,986.95
2019-02-02T04:53:34.373Z,987.00
2019-02-02T04:54:34.378Z,987.00
2019-02-02T04:55:34.320Z,987.05
2019-02-02T04:56:34.294Z,987.06
2019-02-02T04:57:34.263Z,987.08
2019-02-02T04:58:34.236Z,987.09
2019-02-02T04:59:34.209Z,987.14
2019-02-02T05:00:34.188Z,987.17
2019-02-02T05:01:34.155Z,987.13
2019-02-02T05:02:34.157Z,987.17
2019-02-02T05:03:34.097Z,987.16
2019-02-02T05:04:34.071Z,987.15
2019-02-02T05:05:34.040Z,987.19
2019-02-02T05:06:34.016Z,987.20
2019-02-02T05:07:33.988Z,987.17
2019-02-02T05:08:33.956Z,987.19
2019-02-02T05:09:33.930Z,987.21
2019-02-02T05:10:33.994Z,987.21
2019-02-02T05:11:33.874Z,987.20
2019-02-02T05:12:33.847Z,987.27
2019-02-02T05:13:33.822Z,987.24
2019-02-02T05:14:33.793Z,987.24
2019-02-02T05:15:33.764Z,987.21
2019-02-02T05:16:33.737Z,987.22
2019-02-02T05:17:33.708Z,987.21
2019-02-02T05:18:33.680Z,987.25
2019-02-02T05:19:33.655Z,987.22
2019-02-02T05:20:33.627Z,987.23
2019-02-02T05:21:33.600Z,987.23
2019-02-02T05:22:33.575Z,987.24
2019-02-02T05:23:33.543Z,987.26
2019-02-02T05:24:33.514Z,987.27
2019-02-02T05:25:33.490Z,987.32
2019-02-02T05:26:33.461Z,987.31
2019-02-02T05:27:33.434Z,987.35
2019-02-02T05:28:33.406Z,987.33
2019-02-02T05:29:41.211Z,987.35
2019-02-02T05:30:33.351Z,987.36
2019-02-02T05:31:33.322Z,987.39
2019-02-02T05:32:33.294Z,987.40
2019-02-02T05:33:33.267Z,987.40
2019-02-02T05:34:33.245Z,987.42
2019-02-02T05:35:33.211Z,987.39
2019-02-02T05:36:33.184Z,987.40
2019-02-02T05:37:33.156Z,987.41
2019-02-02T05:38:33.144Z,987.44
2019-02-02T05:39:33.102Z,987.43
2019-02-02T05:40:33.076Z,987.44
2019-02-02T05:41:33.047Z,987.41
2019-02-02T05:42:33.021Z,987.44
2019-02-02T05:43:32.993Z,987.47
2019-02-02T05:44:32.964Z,987.50
2019-02-02T05:45:32.957Z,987.48
2019-02-02T05:46:32.908Z,987.53
2019-02-02T05:47:32.884Z,987.54
2019-02-02T05:48:32.854Z,987.52
2019-02-02T05:49:32.848Z,987.53
2019-02-02T05:50:32.799Z,987.54
2019-02-02T05:51:32.771Z,987.58
2019-02-02T05:52:32.747Z,987.58
2019-02-02T05:53:32.721Z,987.58
2019-02-02T05:54:32.690Z,987.57
2019-02-02T05:55:32.661Z,987.60
2019-02-02T05:56:32.639Z,987.58
2019-02-02T05:57:32.605Z,987.57
2019-02-02T05:58:32.581Z,987.59
2019-02-02T05:59:32.556Z,987.65
2019-02-02T06:00:32.528Z,987.66
2019-02-02T06:01:32.497Z,987.66
2019-02-02T06:02:32.477Z,987.68
2019-02-02T06:03:32.440Z,987.68
2019-02-02T06:04:32.412Z,987.70
2019-02-02T06:05:32.385Z,987.70
2019-02-02T06:06:32.358Z,987.69
2019-02-02T06:07:32.333Z,987.66
2019-02-02T06:08:32.303Z,987.67
2019-02-02T06:09:32.362Z,987.70
2019-02-02T06:10:32.246Z,987.65
2019-02-02T06:11:32.220Z,987.64
2019-02-02T06:12:32.191Z,987.70
2019-02-02T06:13:32.166Z,987.65
2019-02-02T06:14:32.139Z,987.63
2019-02-02T06:15:32.108Z,987.64
2019-02-02T06:16:32.082Z,987.64
2019-02-02T06:17:32.061Z,987.70
2019-02-02T06:18:32.026Z,987.68
2019-02-02T06:19:32.002Z,987.72
2019-02-02T06:20:31.970Z,987.70
2019-02-02T06:21:31.943Z,987.69
2019-02-02T06:22:31.915Z,987.68
2019-02-02T06:23:31.888Z,987.69
2019-02-02T06:24:31.861Z,987.70
2019-02-02T06:25:31.834Z,987.74
2019-02-02T06:26:31.806Z,987.73
2019-02-02T06:27:31.778Z,987.74
2019-02-02T06:28:31.781Z,987.77
2019-02-02T06:29:31.723Z,987.77
2019-02-02T06:30:31.698Z,987.76
2019-02-02T06:31:31.668Z,987.84
2019-02-02T06:32:31.640Z,987.85
2019-02-02T06:33:31.635Z,987.88
2019-02-02T06:34:31.584Z,987.91
2019-02-02T06:35:31.559Z,987.95
2019-02-02T06:36:31.532Z,987.99
2019-02-02T06:37:31.500Z,988.00
2019-02-02T06:38:31.474Z,988.05
2019-02-02T06:39:31.448Z,988.03
2019-02-02T06:40:31.419Z,988.06
2019-02-02T06:41:31.393Z,988.09
2019-02-02T06:42:31.365Z,988.11
2019-02-02T06:43:31.336Z,988.07
2019-02-02T06:44:31.312Z,988.08
2019-02-02T06:45:31.283Z,988.10
2019-02-02T06:46:43.003Z,988.13
2019-02-02T06:47:31.227Z,988.17
2019-02-02T06:48:31.199Z,988.15
2019-02-02T06:49:31.192Z,988.14
2019-02-02T06:50:31.143Z,988.21
2019-02-02T06:51:31.127Z,988.24
2019-02-02T06:52:31.088Z,988.22
2019-02-02T06:53:31.064Z,988.28
2019-02-02T06:54:33.876Z,988.28
2019-02-02T06:55:31.006Z,988.28
2019-02-02T06:56:30.979Z,988.25
2019-02-02T06:57:30.952Z,988.30
2019-02-02T06:58:30.923Z,988.25
2019-02-02T06:59:30.896Z,988.29
2019-02-02T07:00:30.869Z,988.29
2019-02-02T07:01:30.842Z,988.30
2019-02-02T07:02:30.814Z,988.30
2019-02-02T07:03:30.788Z,988.26
2019-02-02T07:04:30.761Z,988.29
2019-02-02T07:05:33.627Z,988.31
2019-02-02T07:06:30.704Z,988.34
2019-02-02T07:07:30.680Z,988.33
2019-02-02T07:08:30.743Z,988.34
2019-02-02T07:09:30.617Z,988.37
2019-02-02T07:10:30.591Z,988.45
2019-02-02T07:11:30.565Z,988.44
2019-02-02T07:12:30.535Z,988.46
2019-02-02T07:13:30.505Z,988.46
2019-02-02T07:14:30.480Z,988.45
2019-02-02T07:15:30.452Z,988.43
2019-02-02T07:16:30.424Z,988.49
2019-02-02T07:17:30.396Z,988.45
2019-02-02T07:18:30.369Z,988.51
2019-02-02T07:19:30.342Z,988.55
2019-02-02T07:20:30.316Z,988.54
2019-02-02T07:21:30.292Z,988.56
2019-02-02T07:22:30.264Z,988.54
2019-02-02T07:23:30.238Z,988.56
2019-02-02T07:24:30.204Z,988.55
2019-02-02T07:25:30.176Z,988.57
2019-02-02T07:26:30.169Z,988.54
2019-02-02T07:27:30.121Z,988.60
2019-02-02T07:28:30.091Z,988.59
2019-02-02T07:29:30.065Z,988.57
2019-02-02T07:30:30.054Z,988.65
2019-02-02T07:31:30.016Z,988.64
2019-02-02T07:32:30.032Z,988.60
2019-02-02T07:33:29.952Z,988.62
2019-02-02T07:34:29.925Z,988.65
2019-02-02T07:35:29.899Z,988.66
2019-02-02T07:36:29.869Z,988.66
2019-02-02T07:37:29.851Z,988.70
2019-02-02T07:38:29.816Z,988.71
2019-02-02T07:39:29.881Z,988.73
2019-02-02T07:40:29.762Z,988.73
2019-02-02T07:41:29.732Z,988.75
2019-02-02T07:42:29.734Z,988.72
2019-02-02T07:43:29.696Z,988.77
2019-02-02T07:44:29.658Z,988.75
2019-02-02T07:45:29.622Z,988.73
2019-02-02T07:46:29.592Z,988.74
2019-02-02T07:47:29.567Z,988.76
2019-02-02T07:48:29.538Z,988.78
2019-02-02T07:49:29.511Z,988.76
2019-02-02T07:50:29.484Z,988.79
2019-02-02T07:51:29.454Z,988.78
2019-02-02T07:52:29.427Z,988.80
2019-02-02T07:53:29.398Z,988.77
2019-02-02T07:54:29.543Z,988.79
2019-02-02T07:55:29.345Z,988.78
2019-02-02T07:56:29.319Z,988.81
2019-02-02T07:57:29.290Z,988.80
2019-02-02T07:58:29.314Z,988.80
2019-02-02T07:59:29.237Z,988.80
2019-02-02T08:00:39.649Z,988.82
2019-02-02T08:01:29.178Z,988.82
2019-02-02T08:02:29.151Z,988.80
2019-02-02T08:03:29.127Z,988.84
2019-02-02T08:04:29.098Z,988.84
2019-02-02T08:05:29.081Z,988.81
2019-02-02T08:06:29.046Z,988.83
2019-02-02T08:07:29.015Z,988.87
2019-02-02T08:08:28.993Z,988.87
2019-02-02T08:09:28.957Z,988.90
2019-02-02T08:10:28.941Z,988.87
2019-02-02T08:11:28.908Z,988.94
2019-02-02T08:12:28.875Z,988.95
2019-02-02T08:13:28.850Z,988.96
2019-02-02T08:14:28.823Z,988.97
2019-02-02T08:15:28.794Z,988.98
2019-02-02T08:16:28.765Z,988.99
2019-02-02T08:17:28.738Z,989.03
2019-02-02T08:18:28.713Z,988.99
2019-02-02T08:19:28.685Z,989.00
2019-02-02T08:20:28.658Z,988.97
2019-02-02T08:21:28.654Z,988.95
2019-02-02T08:22:28.600Z,989.00
2019-02-02T08:23:28.577Z,988.95
2019-02-02T08:24:28.551Z,989.03
2019-02-02T08:25:28.518Z,989.04
2019-02-02T08:26:28.493Z,989.04
2019-02-02T08:27:28.465Z,989.11
2019-02-02T08:28:28.436Z,989.11
2019-02-02T08:29:28.409Z,989.12
2019-02-02T08:30:28.382Z,989.15
2019-02-02T08:31:28.354Z,989.09
2019-02-02T08:32:28.326Z,989.10
2019-02-02T08:33:28.301Z,989.14
2019-02-02T08:34:28.275Z,989.11
2019-02-02T08:35:28.247Z,989.14
2019-02-02T08:36:28.228Z,989.15
2019-02-02T08:37:28.192Z,989.17
2019-02-02T08:38:28.298Z,989.15
2019-02-02T08:39:29.487Z,989.18
2019-02-02T08:40:28.109Z,989.22
2019-02-02T08:41:28.082Z,989.16
2019-02-02T08:42:28.062Z,989.23
2019-02-02T08:43:28.029Z,989.23
2019-02-02T08:44:29.534Z,989.22
2019-02-02T08:45:27.975Z,989.27
2019-02-02T08:46:27.945Z,989.31
2019-02-02T08:47:27.918Z,989.34
2019-02-02T08:48:27.889Z,989.36
2019-02-02T08:49:27.864Z,989.40
2019-02-02T08:50:27.836Z,989.41
2019-02-02T08:51:27.809Z,989.42
2019-02-02T08:52:27.780Z,989.36
2019-02-02T08:53:27.831Z,989.40
2019-02-02T08:54:27.731Z,989.37
2019-02-02T08:55:27.768Z,989.39
2019-02-02T08:56:27.745Z,989.41
2019-02-02T08:57:27.648Z,989.39
2019-02-02T08:58:27.621Z,989.44
2019-02-02T08:59:27.591Z,989.43
2019-02-02T09:00:27.563Z,989.49
2019-02-02T09:01:27.536Z,989.54
2019-02-02T09:02:27.512Z,989.58
2019-02-02T09:03:27.491Z,989.65
2019-02-02T09:04:27.454Z,989.62
2019-02-02T09:05:27.450Z,989.62
2019-02-02T09:06:38.207Z,989.66
2019-02-02T09:07:27.375Z,989.65
2019-02-02T09:08:27.357Z,989.60
2019-02-02T09:09:27.317Z,989.63
2019-02-02T09:10:27.426Z,989.61
2019-02-02T09:11:27.268Z,989.62
2019-02-02T09:12:27.235Z,989.61
2019-02-02T09:13:27.214Z,989.62
2019-02-02T09:14:27.184Z,989.61
2019-02-02T09:15:27.158Z,989.64
2019-02-02T09:16:27.128Z,989.60
2019-02-02T09:17:27.143Z,989.58
2019-02-02T09:18:27.076Z,989.59
2019-02-02T09:19:27.048Z,989.61
2019-02-02T09:20:27.019Z,989.62
2019-02-02T09:21:27.006Z,989.62
2019-02-02T09:22:26.967Z,989.63
2019-02-02T09:23:26.942Z,989.63
2019-02-02T09:24:26.911Z,989.65
2019-02-02T09:25:26.884Z,989.64
2019-02-02T09:26:26.857Z,989.66
2019-02-02T09:27:26.830Z,989.71
2019-02-02T09:28:26.886Z,989.68
2019-02-02T09:29:26.773Z,989.69
2019-02-02T09:30:26.777Z,989.67
2019-02-02T09:31:26.719Z,989.71
2019-02-02T09:32:26.691Z,989.71
2019-02-02T09:33:26.666Z,989.70
2019-02-02T09:34:28.867Z,989.73
2019-02-02T09:35:26.614Z,989.73
2019-02-02T09:36:26.585Z,989.74
2019-02-02T09:37:26.557Z,989.76
2019-02-02T09:38:26.531Z,989.74
2019-02-02T09:39:26.550Z,989.78
2019-02-02T09:40:26.479Z,989.77
2019-02-02T09:41:26.449Z,989.80
2019-02-02T09:42:26.425Z,989.79
2019-02-02T09:43:26.394Z,989.79
2019-02-02T09:44:26.372Z,989.77
2019-02-02T09:45:26.440Z,989.79
2019-02-02T09:46:26.312Z,989.80
2019-02-02T09:47:26.293Z,989.82
2019-02-02T09:48:26.260Z,989.84
2019-02-02T09:49:26.230Z,989.82
2019-02-02T09:50:26.219Z,989.88
2019-02-02T09:51:26.176Z,989.89
2019-02-02T09:52:26.148Z,989.88
2019-02-02T09:53:26.126Z,989.92
2019-02-02T09:54:26.990Z,989.91
2019-02-02T09:55:26.070Z,989.94
2019-02-02T09:56:26.043Z,990.02
2019-02-02T09:57:27.997Z,990.02
2019-02-02T09:58:25.987Z,989.98
2019-02-02T09:59:25.966Z,989.98
2019-02-02T10:00:25.937Z,990.00
2019-02-02T10:01:27.813Z,990.01
2019-02-02T10:02:27.180Z,990.03
2019-02-02T10:03:25.854Z,989.99
2019-02-02T10:04:25.832Z,990.04
2019-02-02T10:05:25.798Z,990.07
2019-02-02T10:06:25.774Z,990.06
2019-02-02T10:07:25.764Z,990.08
2019-02-02T10:08:28.203Z,990.07
2019-02-02T10:09:25.691Z,990.10
2019-02-02T10:10:25.665Z,990.10
2019-02-02T10:11:25.646Z,990.13
2019-02-02T10:12:25.610Z,990.12
2019-02-02T10:13:25.583Z,990.18
2019-02-02T10:14:25.557Z,990.17
2019-02-02T10:15:25.529Z,990.18
2019-02-02T10:16:25.501Z,990.18
2019-02-02T10:17:25.476Z,990.20
2019-02-02T10:18:25.450Z,990.24
2019-02-02T10:19:25.423Z,990.27
2019-02-02T10:20:25.394Z,990.25
2019-02-02T10:21:25.373Z,990.19
2019-02-02T10:22:25.417Z,990.22
2019-02-02T10:23:25.315Z,990.22
2019-02-02T10:24:25.286Z,990.28
2019-02-02T10:25:25.659Z,990.28
2019-02-02T10:26:25.233Z,990.29
2019-02-02T10:27:25.206Z,990.30
2019-02-02T10:28:25.180Z,990.34
2019-02-02T10:29:25.168Z,990.32
2019-02-02T10:30:25.128Z,990.33
2019-02-02T10:31:25.097Z,990.34
2019-02-02T10:32:25.071Z,990.38
2019-02-02T10:33:25.058Z,990.39
2019-02-02T10:34:25.018Z,990.45
2019-02-02T10:35:25.001Z,990.47
2019-02-02T10:36:24.965Z,990.42
2019-02-02T10:37:24.937Z,990.47
2019-02-02T10:38:24.910Z,990.51
2019-02-02T10:39:24.883Z,990.49
2019-02-02T10:40:24.857Z,990.51
2019-02-02T10:41:24.830Z,990.53
2019-02-02T10:42:24.802Z,990.55
2019-02-02T10:43:24.804Z,990.55
2019-02-02T10:44:24.750Z,990.58
2019-02-02T10:45:24.732Z,990.61
2019-02-02T10:46:24.699Z,990.61
2019-02-02T10:47:24.674Z,990.63
2019-02-02T10:48:24.644Z,990.69
2019-02-02T10:49:24.616Z,990.69
2019-02-02T10:50:24.588Z,990.69
2019-02-02T10:51:25.538Z,990.72
2019-02-02T10:52:24.534Z,990.76
2019-02-02T10:53:24.540Z,990.75
2019-02-02T10:54:24.575Z,990.75
2019-02-02T10:55:24.456Z,990.74
2019-02-02T10:56:24.426Z,990.76
2019-02-02T10:57:24.401Z,990.73
2019-02-02T10:58:24.374Z,990.77
2019-02-02T10:59:24.347Z,990.75
2019-02-02T11:00:24.323Z,990.75
2019-02-02T11:01:24.295Z,990.81
2019-02-02T11:02:24.267Z,990.79
2019-02-02T11:03:24.249Z,990.81
2019-02-02T11:04:24.412Z,990.81
2019-02-02T11:05:24.225Z,990.78
2019-02-02T11:06:24.158Z,990.80
2019-02-02T11:07:24.140Z,990.80
2019-02-02T11:08:24.288Z,990.87
2019-02-02T11:09:24.099Z,990.91
2019-02-02T11:10:24.053Z,990.88
2019-02-02T11:11:24.028Z,990.88
2019-02-02T11:12:24.219Z,990.94
2019-02-02T11:13:24.014Z,990.93
2019-02-02T11:14:24.048Z,990.96
2019-02-02T11:15:24.182Z,990.97
2019-02-02T11:16:23.999Z,990.94
2019-02-02T11:17:23.896Z,991.00
2019-02-02T11:18:23.924Z,991.00
2019-02-02T11:19:23.829Z,991.01
2019-02-02T11:20:24.046Z,991.05
2019-02-02T11:21:23.990Z,991.06
2019-02-02T11:22:23.785Z,991.04
2019-02-02T11:23:23.753Z,991.07
2019-02-02T11:24:23.773Z,991.09
2019-02-02T11:25:23.691Z,991.04
2019-02-02T11:26:23.706Z,991.10
2019-02-02T11:27:23.605Z,991.08
2019-02-02T11:28:23.810Z,991.10
2019-02-02T11:29:23.540Z,991.09
2019-02-02T11:30:23.521Z,991.08
2019-02-02T11:31:23.488Z,991.08
2019-02-02T11:32:23.464Z,991.09
2019-02-02T11:33:23.432Z,991.11
2019-02-02T11:34:23.407Z,991.11
2019-02-02T11:35:23.433Z,991.11
2019-02-02T11:36:23.352Z,991.13
2019-02-02T11:37:23.329Z,991.13
2019-02-02T11:38:23.372Z,991.15
2019-02-02T11:39:23.272Z,991.16
2019-02-02T11:40:23.248Z,991.16
2019-02-02T11:41:23.218Z,991.16
2019-02-02T11:42:23.316Z,991.19
2019-02-02T11:43:23.279Z,991.18
2019-02-02T11:44:23.137Z,991.22
2019-02-02T11:45:23.109Z,991.26
2019-02-02T11:46:23.160Z,991.25
2019-02-02T11:47:23.122Z,991.23
2019-02-02T11:48:23.030Z,991.24
2019-02-02T11:49:23.990Z,991.30
2019-02-02T11:50:22.978Z,991.34
2019-02-02T11:51:22.952Z,991.35
2019-02-02T11:52:23.447Z,991.34
2019-02-02T11:53:22.904Z,991.33
2019-02-02T11:54:22.870Z,991.33
2019-02-02T11:55:22.843Z,991.31
2019-02-02T11:56:22.815Z,991.31
2019-02-02T11:57:22.815Z,991.31
2019-02-02T11:58:22.764Z,991.35
2019-02-02T11:59:22.740Z,991.34
2019-02-02T12:00:22.706Z,991.37
2019-02-02T12:01:22.680Z,991.36
2019-02-02T12:02:22.655Z,991.41
2019-02-02T12:03:22.629Z,991.46
2019-02-02T12:04:22.600Z,991.46
2019-02-02T12:05:22.574Z,991.48
2019-02-02T12:06:22.545Z,991.46
2019-02-02T12:07:22.519Z,991.50
2019-02-02T12:08:22.491Z,991.54
2019-02-02T12:09:22.466Z,991.54
2019-02-02T12:10:22.458Z,991.58
2019-02-02T12:11:22.412Z,991.55
2019-02-02T12:12:22.384Z,991.58
2019-02-02T12:13:22.357Z,991.61
2019-02-02T12:14:22.379Z,991.65
2019-02-02T12:15:22.407Z,991.65
2019-02-02T12:16:22.301Z,991.66
2019-02-02T12:17:22.250Z,991.66
2019-02-02T12:18:22.222Z,991.66
2019-02-02T12:19:22.196Z,991.69
2019-02-02T12:20:22.168Z,991.71
2019-02-02T12:21:22.163Z,991.75
2019-02-02T12:22:22.116Z,991.79
2019-02-02T12:23:22.090Z,991.83
2019-02-02T12:24:22.100Z,991.87
2019-02-02T12:25:22.050Z,991.92
2019-02-02T12:26:22.010Z,991.90
2019-02-02T12:27:21.980Z,991.93
2019-02-02T12:28:21.953Z,991.92